地図

経路データ

SID SEASON NUMBER BASIN SUBBASIN NAME ISO_TIME NATURE LAT LON WMO_WIND WMO_PRES WMO_AGENCY TRACK_TYPE DIST2LAND LANDFALL IFLAG USA_AGENCY USA_ATCF_ID USA_LAT USA_LON USA_RECORD USA_STATUS USA_WIND USA_PRES USA_SSHS USA_R34_NE USA_R34_SE USA_R34_SW USA_R34_NW USA_R50_NE USA_R50_SE USA_R50_SW USA_R50_NW USA_R64_NE USA_R64_SE USA_R64_SW USA_R64_NW USA_POCI USA_ROCI USA_RMW USA_EYE TOKYO_LAT TOKYO_LON TOKYO_GRADE TOKYO_WIND TOKYO_PRES TOKYO_R50_DIR TOKYO_R50_LONG TOKYO_R50_SHORT TOKYO_R30_DIR TOKYO_R30_LONG TOKYO_R30_SHORT TOKYO_LAND CMA_LAT CMA_LON CMA_CAT CMA_WIND CMA_PRES HKO_LAT HKO_LON HKO_CAT HKO_WIND HKO_PRES NEWDELHI_LAT NEWDELHI_LON NEWDELHI_GRADE NEWDELHI_WIND NEWDELHI_PRES NEWDELHI_CI NEWDELHI_DP NEWDELHI_POCI REUNION_LAT REUNION_LON REUNION_TYPE REUNION_WIND REUNION_PRES REUNION_TNUM REUNION_CI REUNION_RMW REUNION_R34_NE REUNION_R34_SE REUNION_R34_SW REUNION_R34_NW REUNION_R50_NE REUNION_R50_SE REUNION_R50_SW REUNION_R50_NW REUNION_R64_NE REUNION_R64_SE REUNION_R64_SW REUNION_R64_NW BOM_LAT BOM_LON BOM_TYPE BOM_WIND BOM_PRES BOM_TNUM BOM_CI BOM_RMW BOM_R34_NE BOM_R34_SE BOM_R34_SW BOM_R34_NW BOM_R50_NE BOM_R50_SE BOM_R50_SW BOM_R50_NW BOM_R64_NE BOM_R64_SE BOM_R64_SW BOM_R64_NW BOM_ROCI BOM_POCI BOM_EYE BOM_POS_METHOD BOM_PRES_METHOD NADI_LAT NADI_LON NADI_CAT NADI_WIND NADI_PRES WELLINGTON_LAT WELLINGTON_LON WELLINGTON_WIND WELLINGTON_PRES DS824_LAT DS824_LON DS824_STAGE DS824_WIND DS824_PRES TD9636_LAT TD9636_LON TD9636_STAGE TD9636_WIND TD9636_PRES TD9635_LAT TD9635_LON TD9635_WIND TD9635_PRES TD9635_ROCI NEUMANN_LAT NEUMANN_LON NEUMANN_CLASS NEUMANN_WIND NEUMANN_PRES MLC_LAT MLC_LON MLC_CLASS MLC_WIND MLC_PRES USA_GUST BOM_GUST BOM_GUST_PER REUNION_GUST REUNION_GUST_PER USA_SEAHGT USA_SEARAD_NE USA_SEARAD_SE USA_SEARAD_SW USA_SEARAD_NW STORM_SPEED STORM_DIR
1895001S14073 1895 1 SI MM NOT_NAMED 1895-01-01 06:00:00 NR -14.3000 73.1000 reunion main 1756 1746 _____O________ -1 -14.3000 73.1000 99 9.90000 3 253
1895001S14073 1895 1 SI MM NOT_NAMED 1895-01-01 09:00:00 NR -14.3383 72.9729 main 1746 1722 _____P________ -1 -14.3383 72.9729 99 3 253
1895001S14073 1895 1 SI MM NOT_NAMED 1895-01-01 12:00:00 NR -14.3765 72.8425 main 1722 1712 _____P________ -1 -14.3765 72.8425 99 3 254
1895001S14073 1895 1 SI MM NOT_NAMED 1895-01-01 15:00:00 NR -14.4145 72.7053 main 1712 1698 _____P________ -1 -14.4145 72.7053 99 3 255
1895001S14073 1895 1 SI MM NOT_NAMED 1895-01-01 18:00:00 NR -14.4523 72.5579 main 1698 1678 _____P________ -1 -14.4523 72.5579 99 3 256
1895001S14073 1895 1 SI MM NOT_NAMED 1895-01-01 21:00:00 NR -14.4899 72.3971 main 1678 1659 _____P________ -1 -14.4899 72.3971 99 3 257
1895001S14073 1895 1 SI MM NOT_NAMED 1895-01-02 00:00:00 NR -14.5271 72.2194 main 1659 1634 _____P________ -1 -14.5271 72.2194 99 4 258
1895001S14073 1895 1 SI MM NOT_NAMED 1895-01-02 03:00:00 NR -14.5638 72.0215 main 1634 1615 _____P________ -1 -14.5638 72.0215 99 4 260
1895001S14073 1895 1 SI MM NOT_NAMED 1895-01-02 06:00:00 NR -14.6000 71.8000 reunion main 1615 1596 _____O________ -1 -14.6000 71.8000 99 9.90000 5 261
1895001S14073 1895 1 SI MM NOT_NAMED 1895-01-02 09:00:00 NR -14.6358 71.5526 main 1596 1562 _____P________ -1 -14.6358 71.5526 99 5 262
1895001S14073 1895 1 SI MM NOT_NAMED 1895-01-02 12:00:00 NR -14.6725 71.2810 main 1562 1533 _____P________ -1 -14.6725 71.2810 99 6 262
1895001S14073 1895 1 SI MM NOT_NAMED 1895-01-02 15:00:00 NR -14.7117 70.9880 main 1533 1499 _____P________ -1 -14.7117 70.9880 99 6 262
1895001S14073 1895 1 SI MM NOT_NAMED 1895-01-02 18:00:00 NR -14.7549 70.6765 main 1499 1470 _____P________ -1 -14.7549 70.6765 99 6 262
1895001S14073 1895 1 SI MM NOT_NAMED 1895-01-02 21:00:00 NR -14.8037 70.3492 main 1460 1426 _____P________ -1 -14.8037 70.3492 99 7 261
1895001S14073 1895 1 SI MM NOT_NAMED 1895-01-03 00:00:00 NR -14.8598 70.0088 main 1426 1398 _____P________ -1 -14.8598 70.0088 99 7 260
1895001S14073 1895 1 SI MM NOT_NAMED 1895-01-03 03:00:00 NR -14.9246 69.6582 main 1398 1354 _____P________ -1 -14.9246 69.6582 99 7 258
1895001S14073 1895 1 SI MM NOT_NAMED 1895-01-03 06:00:00 NR -15.0000 69.3000 reunion main 1354 1320 _____O________ -1 -15.0000 69.3000 99 9.90000 7 256
1895001S14073 1895 1 SI MM NOT_NAMED 1895-01-03 09:00:00 NR -15.0930 68.9485 main 1311 1277 _____P________ -1 -15.0930 68.9485 99 7 254
1895001S14073 1895 1 SI MM NOT_NAMED 1895-01-03 12:00:00 NR -15.1970 68.5863 main 1277 1234 _____P________ -1 -15.1970 68.5863 99 7 253
1895001S14073 1895 1 SI MM NOT_NAMED 1895-01-03 15:00:00 NR -15.3093 68.2155 main 1234 1201 _____P________ -1 -15.3093 68.2155 99 8 252
1895001S14073 1895 1 SI MM NOT_NAMED 1895-01-03 18:00:00 NR -15.4272 67.8380 main 1191 1157 _____P________ -1 -15.4272 67.8380 99 8 252
1895001S14073 1895 1 SI MM NOT_NAMED 1895-01-03 21:00:00 NR -15.5479 67.4557 main 1157 1109 _____P________ -1 -15.5479 67.4557 99 8 252
1895001S14073 1895 1 SI MM NOT_NAMED 1895-01-04 00:00:00 NR -15.6688 67.0706 main 1109 1066 _____P________ -1 -15.6688 67.0706 99 8 252
1895001S14073 1895 1 SI MM NOT_NAMED 1895-01-04 03:00:00 NR -15.7870 66.6847 main 1066 1023 _____P________ -1 -15.7870 66.6847 99 8 253
1895001S14073 1895 1 SI MM NOT_NAMED 1895-01-04 06:00:00 NR -15.9000 66.3000 reunion main 1023 989 _____O________ -1 -15.9000 66.3000 99 9.90000 7 254
1895001S14073 1895 1 SI MM NOT_NAMED 1895-01-04 09:00:00 NR -15.9882 65.9433 main 980 947 _____P________ -1 -15.9882 65.9433 99 7 256
1895001S14073 1895 1 SI MM NOT_NAMED 1895-01-04 12:00:00 NR -16.0713 65.5890 main 947 919 _____P________ -1 -16.0713 65.5890 99 7 257
1895001S14073 1895 1 SI MM NOT_NAMED 1895-01-04 15:00:00 NR -16.1518 65.2334 main 904 876 _____P________ -1 -16.1518 65.2334 99 7 257
1895001S14073 1895 1 SI MM NOT_NAMED 1895-01-04 18:00:00 NR -16.2322 64.8725 main 876 834 _____P________ -1 -16.2322 64.8725 99 7 257
1895001S14073 1895 1 SI MM NOT_NAMED 1895-01-04 21:00:00 NR -16.3149 64.5027 main 834 792 _____P________ -1 -16.3149 64.5027 99 7 257
1895001S14073 1895 1 SI MM NOT_NAMED 1895-01-05 00:00:00 NR -16.4021 64.1200 main 792 750 _____P________ -1 -16.4021 64.1200 99 8 256
1895001S14073 1895 1 SI MM NOT_NAMED 1895-01-05 03:00:00 NR -16.4964 63.7204 main 750 708 _____P________ -1 -16.4964 63.7204 99 8 256
1895001S14073 1895 1 SI MM NOT_NAMED 1895-01-05 06:00:00 NR -16.6000 63.3000 reunion main 708 667 _____O________ -1 -16.6000 63.3000 99 9.90000 9 255
1895001S14073 1895 1 SI MM NOT_NAMED 1895-01-05 09:00:00 NR -16.7229 62.8448 main 658 618 _____P________ -1 -16.7229 62.8448 99 9 254
1895001S14073 1895 1 SI MM NOT_NAMED 1895-01-05 12:00:00 NR -16.8546 62.3683 main 611 562 _____P________ -1 -16.8546 62.3683 99 10 254
1895001S14073 1895 1 SI MM NOT_NAMED 1895-01-05 15:00:00 NR -16.9929 61.8745 main 562 514 _____P________ -1 -16.9929 61.8745 99 10 254
1895001S14073 1895 1 SI MM NOT_NAMED 1895-01-05 18:00:00 NR -17.1353 61.3680 main 514 460 _____P________ -1 -17.1353 61.3680 99 10 254
1895001S14073 1895 1 SI MM NOT_NAMED 1895-01-05 21:00:00 NR -17.2795 60.8529 main 460 414 _____P________ -1 -17.2795 60.8529 99 10 254
1895001S14073 1895 1 SI MM NOT_NAMED 1895-01-06 00:00:00 NR -17.4232 60.3336 main 407 356 _____P________ -1 -17.4232 60.3336 99 10 254
1895001S14073 1895 1 SI MM NOT_NAMED 1895-01-06 03:00:00 NR -17.5641 59.8145 main 356 316 _____P________ -1 -17.5641 59.8145 99 10 254
1895001S14073 1895 1 SI MM NOT_NAMED 1895-01-06 06:00:00 NR -17.7000 59.3000 reunion main 316 282 _____O________ -1 -17.7000 59.3000 99 9.90000 10 255
1895001S14073 1895 1 SI MM NOT_NAMED 1895-01-06 09:00:00 NR -17.8356 58.7624 main 282 243 _____P________ -1 -17.8356 58.7624 99 11 255
1895001S14073 1895 1 SI MM NOT_NAMED 1895-01-06 12:00:00 NR -17.9689 58.2213 main 240 223 _____P________ -1 -17.9689 58.2213 99 11 256
1895001S14073 1895 1 SI MM NOT_NAMED 1895-01-06 15:00:00 NR -18.0976 57.6856 main 223 212 _____P________ -1 -18.0976 57.6856 99 10 256
1895001S14073 1895 1 SI MM NOT_NAMED 1895-01-06 18:00:00 NR -18.2195 57.1641 main 214 208 _____P________ -1 -18.2195 57.1641 99 10 256
1895001S14073 1895 1 SI MM NOT_NAMED 1895-01-06 21:00:00 NR -18.3326 56.6657 main 218 212 _____P________ -1 -18.3326 56.6657 99 9 257
1895001S14073 1895 1 SI MM NOT_NAMED 1895-01-07 00:00:00 NR -18.4350 56.1995 main 234 231 _____P________ -1 -18.4350 56.1995 99 9 257
1895001S14073 1895 1 SI MM NOT_NAMED 1895-01-07 03:00:00 NR -18.5247 55.7746 main 252 252 _____P________ -1 -18.5247 55.7746 99 8 258
1895001S14073 1895 1 SI MM NOT_NAMED 1895-01-07 06:00:00 NR -18.6000 55.4000 reunion main 268 258 _____O________ -1 -18.6000 55.4000 99 9.90000 7 258
1895001S14073 1895 1 SI MM NOT_NAMED 1895-01-07 09:00:00 NR -18.6597 55.0821 main 258 258 _____P________ -1 -18.6597 55.0821 99 6 259
1895001S14073 1895 1 SI MM NOT_NAMED 1895-01-07 12:00:00 NR -18.7053 54.8163 main 262 262 _____P________ -1 -18.7053 54.8163 99 5 260
1895001S14073 1895 1 SI MM NOT_NAMED 1895-01-07 15:00:00 NR -18.7390 54.5952 main 267 259 _____P________ -1 -18.7390 54.5952 99 4 261
1895001S14073 1895 1 SI MM NOT_NAMED 1895-01-07 18:00:00 NR -18.7629 54.4114 main 263 263 _____P________ -1 -18.7629 54.4114 99 3 263
1895001S14073 1895 1 SI MM NOT_NAMED 1895-01-07 21:00:00 NR -18.7790 54.2574 main 267 267 _____P________ -1 -18.7790 54.2574 99 3 264
1895001S14073 1895 1 SI MM NOT_NAMED 1895-01-08 00:00:00 NR -18.7892 54.1258 main 276 276 _____P________ -1 -18.7892 54.1258 99 2 266
1895001S14073 1895 1 SI MM NOT_NAMED 1895-01-08 03:00:00 NR -18.7956 54.0092 main 281 281 _____P________ -1 -18.7956 54.0092 99 2 267
1895001S14073 1895 1 SI MM NOT_NAMED 1895-01-08 06:00:00 NR -18.8000 53.9000 reunion main 286 _____O________ -1 -18.8000 53.9000 99 9.90000 2 268

IBTrACS Databaseについて

本データベースは、米国NOAAが公開する1842年以降の世界の熱帯低気圧のベストトラックデータアーカイブInternational Best Track Archive for Climate Stewardship (IBTrACS)を、ウェブで閲覧しやすい形式に変換したものです。

最終更新日:2021-11-26